sensor_id;sensor_type;location;lat;lon;timestamp;P1;durP1;ratioP1;P2;durP2;ratioP2
10100;SDS011;5090;51.258;4.436;2023-02-28T00:00:44;9.37;;;7.13;;
10100;SDS011;5090;51.258;4.436;2023-02-28T00:03:14;13.47;;;6.70;;
10100;SDS011;5090;51.258;4.436;2023-02-28T00:05:42;8.27;;;6.83;;
10100;SDS011;5090;51.258;4.436;2023-02-28T00:08:10;13.07;;;6.97;;
10100;SDS011;5090;51.258;4.436;2023-02-28T00:10:39;9.13;;;7.00;;
10100;SDS011;5090;51.258;4.436;2023-02-28T00:13:10;10.53;;;7.90;;
10100;SDS011;5090;51.258;4.436;2023-02-28T00:15:39;11.60;;;7.03;;
10100;SDS011;5090;51.258;4.436;2023-02-28T00:18:07;8.90;;;7.07;;
10100;SDS011;5090;51.258;4.436;2023-02-28T00:20:35;7.30;;;6.57;;
10100;SDS011;5090;51.258;4.436;2023-02-28T00:23:04;11.60;;;7.23;;
10100;SDS011;5090;51.258;4.436;2023-02-28T00:25:38;8.57;;;6.73;;
10100;SDS011;5090;51.258;4.436;2023-02-28T00:28:07;11.97;;;7.50;;
10100;SDS011;5090;51.258;4.436;2023-02-28T00:30:35;9.80;;;8.00;;
10100;SDS011;5090;51.258;4.436;2023-02-28T00:33:03;10.90;;;7.27;;
10100;SDS011;5090;51.258;4.436;2023-02-28T00:35:32;10.83;;;7.60;;
10100;SDS011;5090;51.258;4.436;2023-02-28T00:38:00;10.73;;;7.27;;
10100;SDS011;5090;51.258;4.436;2023-02-28T00:40:28;9.40;;;6.90;;
10100;SDS011;5090;51.258;4.436;2023-02-28T00:42:57;11.13;;;6.50;;
10100;SDS011;5090;51.258;4.436;2023-02-28T00:45:25;10.00;;;6.93;;
10100;SDS011;5090;51.258;4.436;2023-02-28T00:47:54;13.43;;;7.17;;
10100;SDS011;5090;51.258;4.436;2023-02-28T00:50:22;9.63;;;6.97;;
10100;SDS011;5090;51.258;4.436;2023-02-28T00:52:50;9.80;;;7.23;;
10100;SDS011;5090;51.258;4.436;2023-02-28T00:55:18;8.30;;;6.67;;
10100;SDS011;5090;51.258;4.436;2023-02-28T00:57:47;9.47;;;7.33;;
10100;SDS011;5090;51.258;4.436;2023-02-28T01:00:16;8.07;;;6.60;;
10100;SDS011;5090;51.258;4.436;2023-02-28T01:02:43;8.97;;;7.20;;
10100;SDS011;5090;51.258;4.436;2023-02-28T01:05:13;8.47;;;6.87;;
10100;SDS011;5090;51.258;4.436;2023-02-28T01:07:41;14.80;;;7.63;;
10100;SDS011;5090;51.258;4.436;2023-02-28T01:10:10;12.57;;;7.03;;
10100;SDS011;5090;51.258;4.436;2023-02-28T01:12:38;8.53;;;6.60;;
10100;SDS011;5090;51.258;4.436;2023-02-28T01:15:06;9.80;;;7.37;;
10100;SDS011;5090;51.258;4.436;2023-02-28T01:17:35;9.57;;;7.00;;
10100;SDS011;5090;51.258;4.436;2023-02-28T01:20:03;9.77;;;7.67;;
10100;SDS011;5090;51.258;4.436;2023-02-28T01:22:31;9.47;;;6.67;;
10100;SDS011;5090;51.258;4.436;2023-02-28T01:25:00;9.10;;;7.20;;
10100;SDS011;5090;51.258;4.436;2023-02-28T01:27:28;9.83;;;8.03;;
10100;SDS011;5090;51.258;4.436;2023-02-28T01:29:56;8.97;;;7.10;;
10100;SDS011;5090;51.258;4.436;2023-02-28T01:32:24;10.53;;;7.27;;
10100;SDS011;5090;51.258;4.436;2023-02-28T01:34:52;10.20;;;7.23;;
10100;SDS011;5090;51.258;4.436;2023-02-28T01:37:21;8.97;;;7.23;;
10100;SDS011;5090;51.258;4.436;2023-02-28T01:39:49;9.20;;;7.27;;
10100;SDS011;5090;51.258;4.436;2023-02-28T01:42:17;10.73;;;7.43;;
10100;SDS011;5090;51.258;4.436;2023-02-28T01:47:20;9.73;;;7.03;;
10100;SDS011;5090;51.258;4.436;2023-02-28T01:49:48;10.30;;;7.53;;
10100;SDS011;5090;51.258;4.436;2023-02-28T01:52:16;12.67;;;7.87;;
10100;SDS011;5090;51.258;4.436;2023-02-28T01:54:46;11.87;;;7.47;;
10100;SDS011;5090;51.258;4.436;2023-02-28T01:57:14;11.03;;;7.70;;
10100;SDS011;5090;51.258;4.436;2023-02-28T01:59:47;11.57;;;7.77;;
10100;SDS011;5090;51.258;4.436;2023-02-28T02:02:13;10.40;;;7.97;;
10100;SDS011;5090;51.258;4.436;2023-02-28T02:04:43;8.83;;;7.67;;
10100;SDS011;5090;51.258;4.436;2023-02-28T02:07:09;13.73;;;8.30;;
10100;SDS011;5090;51.258;4.436;2023-02-28T02:09:38;14.67;;;7.80;;
10100;SDS011;5090;51.258;4.436;2023-02-28T02:12:11;13.30;;;7.67;;
10100;SDS011;5090;51.258;4.436;2023-02-28T02:14:38;11.03;;;7.83;;
10100;SDS011;5090;51.258;4.436;2023-02-28T02:17:14;10.17;;;7.77;;
10100;SDS011;5090;51.258;4.436;2023-02-28T02:19:49;12.47;;;8.37;;
10100;SDS011;5090;51.258;4.436;2023-02-28T02:22:21;11.57;;;7.87;;
10100;SDS011;5090;51.258;4.436;2023-02-28T02:25:04;12.30;;;7.17;;
10100;SDS011;5090;51.258;4.436;2023-02-28T02:27:36;12.37;;;7.67;;
10100;SDS011;5090;51.258;4.436;2023-02-28T02:30:08;13.67;;;7.17;;
10100;SDS011;5090;51.258;4.436;2023-02-28T02:35:11;9.60;;;7.33;;
10100;SDS011;5090;51.258;4.436;2023-02-28T02:38:14;12.27;;;7.57;;
10100;SDS011;5090;51.258;4.436;2023-02-28T02:40:24;8.63;;;6.63;;
10100;SDS011;5090;51.258;4.436;2023-02-28T02:43:07;10.07;;;7.90;;
10100;SDS011;5090;51.258;4.436;2023-02-28T02:45:51;10.80;;;7.60;;
10100;SDS011;5090;51.258;4.436;2023-02-28T02:48:18;13.63;;;7.50;;
10100;SDS011;5090;51.258;4.436;2023-02-28T02:50:47;11.83;;;7.37;;
10100;SDS011;5090;51.258;4.436;2023-02-28T02:53:14;11.80;;;7.53;;
10100;SDS011;5090;51.258;4.436;2023-02-28T02:55:43;12.47;;;7.97;;
10100;SDS011;5090;51.258;4.436;2023-02-28T02:58:11;10.40;;;7.40;;
10100;SDS011;5090;51.258;4.436;2023-02-28T03:00:41;10.87;;;7.13;;
10100;SDS011;5090;51.258;4.436;2023-02-28T03:03:08;10.00;;;7.10;;
10100;SDS011;5090;51.258;4.436;2023-02-28T03:05:39;13.33;;;8.07;;
10100;SDS011;5090;51.258;4.436;2023-02-28T03:08:04;11.90;;;8.17;;
10100;SDS011;5090;51.258;4.436;2023-02-28T03:10:35;11.97;;;7.43;;
10100;SDS011;5090;51.258;4.436;2023-02-28T03:13:05;10.80;;;7.20;;
10100;SDS011;5090;51.258;4.436;2023-02-28T03:15:32;10.93;;;7.33;;
10100;SDS011;5090;51.258;4.436;2023-02-28T03:18:04;10.60;;;7.30;;
10100;SDS011;5090;51.258;4.436;2023-02-28T03:20:35;12.77;;;6.93;;
10100;SDS011;5090;51.258;4.436;2023-02-28T03:23:03;14.20;;;7.80;;
10100;SDS011;5090;51.258;4.436;2023-02-28T03:25:32;13.83;;;7.50;;
10100;SDS011;5090;51.258;4.436;2023-02-28T03:28:05;10.70;;;7.33;;
10100;SDS011;5090;51.258;4.436;2023-02-28T03:30:41;9.37;;;7.03;;
10100;SDS011;5090;51.258;4.436;2023-02-28T03:33:12;12.67;;;7.50;;
10100;SDS011;5090;51.258;4.436;2023-02-28T03:35:42;9.57;;;7.10;;
10100;SDS011;5090;51.258;4.436;2023-02-28T03:38:11;10.23;;;7.40;;
10100;SDS011;5090;51.258;4.436;2023-02-28T03:40:37;9.13;;;6.90;;
10100;SDS011;5090;51.258;4.436;2023-02-28T03:43:08;10.90;;;7.60;;
10100;SDS011;5090;51.258;4.436;2023-02-28T03:45:35;9.00;;;6.63;;
10100;SDS011;5090;51.258;4.436;2023-02-28T03:48:07;11.03;;;7.33;;
10100;SDS011;5090;51.258;4.436;2023-02-28T03:50:34;13.87;;;7.50;;
10100;SDS011;5090;51.258;4.436;2023-02-28T03:53:06;9.87;;;6.77;;
10100;SDS011;5090;51.258;4.436;2023-02-28T03:55:34;9.53;;;6.77;;
10100;SDS011;5090;51.258;4.436;2023-02-28T03:58:04;9.83;;;6.70;;
10100;SDS011;5090;51.258;4.436;2023-02-28T04:00:31;11.10;;;7.03;;
10100;SDS011;5090;51.258;4.436;2023-02-28T04:02:58;9.07;;;6.57;;
10100;SDS011;5090;51.258;4.436;2023-02-28T04:05:26;11.97;;;7.00;;
10100;SDS011;5090;51.258;4.436;2023-02-28T04:08:02;13.90;;;7.33;;
10100;SDS011;5090;51.258;4.436;2023-02-28T04:10:23;12.93;;;6.83;;
10100;SDS011;5090;51.258;4.436;2023-02-28T04:12:51;10.33;;;6.60;;
10100;SDS011;5090;51.258;4.436;2023-02-28T04:15:20;8.33;;;6.63;;
10100;SDS011;5090;51.258;4.436;2023-02-28T04:17:48;10.53;;;7.50;;
10100;SDS011;5090;51.258;4.436;2023-02-28T04:20:16;9.73;;;7.07;;
10100;SDS011;5090;51.258;4.436;2023-02-28T04:22:45;11.87;;;6.70;;
10100;SDS011;5090;51.258;4.436;2023-02-28T04:25:13;10.93;;;6.50;;
10100;SDS011;5090;51.258;4.436;2023-02-28T04:27:41;12.23;;;7.00;;
10100;SDS011;5090;51.258;4.436;2023-02-28T04:30:10;7.13;;;6.30;;
10100;SDS011;5090;51.258;4.436;2023-02-28T04:32:38;8.13;;;6.80;;
10100;SDS011;5090;51.258;4.436;2023-02-28T04:35:07;9.50;;;6.63;;
10100;SDS011;5090;51.258;4.436;2023-02-28T04:37:35;10.03;;;7.43;;
10100;SDS011;5090;51.258;4.436;2023-02-28T04:40:03;9.57;;;7.00;;
10100;SDS011;5090;51.258;4.436;2023-02-28T04:42:32;11.67;;;6.27;;
10100;SDS011;5090;51.258;4.436;2023-02-28T04:45:01;12.03;;;6.93;;
10100;SDS011;5090;51.258;4.436;2023-02-28T04:47:28;8.90;;;7.00;;
10100;SDS011;5090;51.258;4.436;2023-02-28T04:49:57;9.23;;;7.23;;
10100;SDS011;5090;51.258;4.436;2023-02-28T04:52:25;9.23;;;6.20;;
10100;SDS011;5090;51.258;4.436;2023-02-28T04:54:53;13.13;;;5.93;;
10100;SDS011;5090;51.258;4.436;2023-02-28T04:57:21;7.90;;;6.03;;
10100;SDS011;5090;51.258;4.436;2023-02-28T04:59:49;10.93;;;6.57;;
10100;SDS011;5090;51.258;4.436;2023-02-28T05:02:17;11.83;;;6.83;;
10100;SDS011;5090;51.258;4.436;2023-02-28T05:04:46;9.83;;;6.57;;
10100;SDS011;5090;51.258;4.436;2023-02-28T05:07:14;9.40;;;6.33;;
10100;SDS011;5090;51.258;4.436;2023-02-28T05:09:42;7.87;;;6.60;;
10100;SDS011;5090;51.258;4.436;2023-02-28T05:12:10;9.70;;;6.40;;
10100;SDS011;5090;51.258;4.436;2023-02-28T05:14:39;10.30;;;6.73;;
10100;SDS011;5090;51.258;4.436;2023-02-28T05:17:08;8.30;;;6.50;;
10100;SDS011;5090;51.258;4.436;2023-02-28T05:19:35;9.60;;;6.23;;
10100;SDS011;5090;51.258;4.436;2023-02-28T05:22:03;10.17;;;6.27;;
10100;SDS011;5090;51.258;4.436;2023-02-28T05:24:32;11.77;;;7.17;;
10100;SDS011;5090;51.258;4.436;2023-02-28T05:27:00;8.37;;;6.03;;
10100;SDS011;5090;51.258;4.436;2023-02-28T05:29:28;10.17;;;6.03;;
10100;SDS011;5090;51.258;4.436;2023-02-28T05:31:56;9.43;;;6.10;;
10100;SDS011;5090;51.258;4.436;2023-02-28T05:34:24;12.17;;;6.17;;
10100;SDS011;5090;51.258;4.436;2023-02-28T05:36:53;12.10;;;6.57;;
10100;SDS011;5090;51.258;4.436;2023-02-28T05:39:21;9.97;;;6.67;;
10100;SDS011;5090;51.258;4.436;2023-02-28T05:41:49;11.30;;;6.60;;
10100;SDS011;5090;51.258;4.436;2023-02-28T05:44:17;16.00;;;7.07;;
10100;SDS011;5090;51.258;4.436;2023-02-28T05:46:45;12.70;;;6.33;;
10100;SDS011;5090;51.258;4.436;2023-02-28T05:49:14;10.17;;;7.07;;
10100;SDS011;5090;51.258;4.436;2023-02-28T05:51:42;7.60;;;6.57;;
10100;SDS011;5090;51.258;4.436;2023-02-28T05:54:10;12.90;;;7.03;;
10100;SDS011;5090;51.258;4.436;2023-02-28T05:56:38;11.80;;;7.10;;
10100;SDS011;5090;51.258;4.436;2023-02-28T05:59:06;13.37;;;6.87;;
10100;SDS011;5090;51.258;4.436;2023-02-28T06:01:37;11.83;;;6.87;;
10100;SDS011;5090;51.258;4.436;2023-02-28T06:04:06;13.63;;;7.37;;
10100;SDS011;5090;51.258;4.436;2023-02-28T06:06:34;12.37;;;7.57;;
10100;SDS011;5090;51.258;4.436;2023-02-28T06:09:02;11.43;;;7.13;;
10100;SDS011;5090;51.258;4.436;2023-02-28T06:11:30;10.37;;;7.13;;
10100;SDS011;5090;51.258;4.436;2023-02-28T06:13:59;17.20;;;7.77;;
10100;SDS011;5090;51.258;4.436;2023-02-28T06:16:27;12.47;;;6.70;;
10100;SDS011;5090;51.258;4.436;2023-02-28T06:18:57;10.70;;;7.50;;
10100;SDS011;5090;51.258;4.436;2023-02-28T06:21:25;12.93;;;7.57;;
10100;SDS011;5090;51.258;4.436;2023-02-28T06:23:53;11.23;;;7.20;;
10100;SDS011;5090;51.258;4.436;2023-02-28T06:26:21;13.63;;;8.40;;
10100;SDS011;5090;51.258;4.436;2023-02-28T06:28:49;12.50;;;7.57;;
10100;SDS011;5090;51.258;4.436;2023-02-28T06:31:18;12.43;;;7.20;;
10100;SDS011;5090;51.258;4.436;2023-02-28T06:33:46;13.30;;;7.27;;
10100;SDS011;5090;51.258;4.436;2023-02-28T06:36:15;12.60;;;7.30;;
10100;SDS011;5090;51.258;4.436;2023-02-28T06:38:43;16.93;;;7.77;;
10100;SDS011;5090;51.258;4.436;2023-02-28T06:41:11;19.30;;;7.83;;
10100;SDS011;5090;51.258;4.436;2023-02-28T06:43:41;25.80;;;8.70;;
10100;SDS011;5090;51.258;4.436;2023-02-28T06:46:10;15.30;;;7.77;;
10100;SDS011;5090;51.258;4.436;2023-02-28T06:48:36;14.63;;;6.90;;
10100;SDS011;5090;51.258;4.436;2023-02-28T06:51:06;13.93;;;7.97;;
10100;SDS011;5090;51.258;4.436;2023-02-28T06:53:33;15.33;;;7.80;;
10100;SDS011;5090;51.258;4.436;2023-02-28T06:56:04;17.00;;;8.13;;
10100;SDS011;5090;51.258;4.436;2023-02-28T06:58:31;12.77;;;7.80;;
10100;SDS011;5090;51.258;4.436;2023-02-28T07:01:03;16.20;;;7.60;;
10100;SDS011;5090;51.258;4.436;2023-02-28T07:03:32;12.97;;;7.37;;
10100;SDS011;5090;51.258;4.436;2023-02-28T07:06:01;12.00;;;7.23;;
10100;SDS011;5090;51.258;4.436;2023-02-28T07:08:29;15.83;;;7.80;;
10100;SDS011;5090;51.258;4.436;2023-02-28T07:10:57;16.63;;;7.60;;
10100;SDS011;5090;51.258;4.436;2023-02-28T07:13:26;12.20;;;7.47;;
10100;SDS011;5090;51.258;4.436;2023-02-28T07:15:58;14.17;;;7.63;;
10100;SDS011;5090;51.258;4.436;2023-02-28T07:18:25;10.00;;;7.40;;
10100;SDS011;5090;51.258;4.436;2023-02-28T07:20:53;15.43;;;7.10;;
10100;SDS011;5090;51.258;4.436;2023-02-28T07:23:21;16.23;;;7.27;;
10100;SDS011;5090;51.258;4.436;2023-02-28T07:25:50;8.73;;;6.57;;
10100;SDS011;5090;51.258;4.436;2023-02-28T07:28:18;9.17;;;6.93;;
10100;SDS011;5090;51.258;4.436;2023-02-28T07:30:46;9.13;;;6.20;;
10100;SDS011;5090;51.258;4.436;2023-02-28T07:33:14;10.07;;;7.20;;
10100;SDS011;5090;51.258;4.436;2023-02-28T07:35:42;14.30;;;6.60;;
10100;SDS011;5090;51.258;4.436;2023-02-28T07:38:11;12.27;;;7.67;;
10100;SDS011;5090;51.258;4.436;2023-02-28T07:40:39;11.73;;;7.27;;
10100;SDS011;5090;51.258;4.436;2023-02-28T07:43:07;11.30;;;7.33;;
10100;SDS011;5090;51.258;4.436;2023-02-28T07:45:35;10.33;;;6.90;;
10100;SDS011;5090;51.258;4.436;2023-02-28T07:48:03;13.10;;;6.03;;
10100;SDS011;5090;51.258;4.436;2023-02-28T07:50:32;10.90;;;6.73;;
10100;SDS011;5090;51.258;4.436;2023-02-28T07:53:00;10.10;;;6.60;;
10100;SDS011;5090;51.258;4.436;2023-02-28T07:55:28;9.63;;;6.53;;
10100;SDS011;5090;51.258;4.436;2023-02-28T07:57:57;9.17;;;6.87;;
10100;SDS011;5090;51.258;4.436;2023-02-28T08:00:25;10.60;;;6.80;;
10100;SDS011;5090;51.258;4.436;2023-02-28T08:02:53;9.90;;;6.60;;
10100;SDS011;5090;51.258;4.436;2023-02-28T08:05:21;11.63;;;6.60;;
10100;SDS011;5090;51.258;4.436;2023-02-28T08:07:49;9.07;;;6.00;;
10100;SDS011;5090;51.258;4.436;2023-02-28T08:10:17;9.37;;;6.67;;
10100;SDS011;5090;51.258;4.436;2023-02-28T08:12:46;8.57;;;5.73;;
10100;SDS011;5090;51.258;4.436;2023-02-28T08:15:14;8.00;;;5.70;;
10100;SDS011;5090;51.258;4.436;2023-02-28T08:17:42;9.53;;;5.47;;
10100;SDS011;5090;51.258;4.436;2023-02-28T08:20:10;6.50;;;5.55;;
10100;SDS011;5090;51.258;4.436;2023-02-28T08:22:39;8.40;;;5.20;;
10100;SDS011;5090;51.258;4.436;2023-02-28T08:25:07;7.43;;;4.90;;
10100;SDS011;5090;51.258;4.436;2023-02-28T08:27:36;7.20;;;4.70;;
10100;SDS011;5090;51.258;4.436;2023-02-28T08:30:05;8.63;;;4.60;;
10100;SDS011;5090;51.258;4.436;2023-02-28T08:32:33;9.87;;;4.70;;
10100;SDS011;5090;51.258;4.436;2023-02-28T08:35:02;7.87;;;5.30;;
10100;SDS011;5090;51.258;4.436;2023-02-28T08:37:30;5.60;;;3.70;;
10100;SDS011;5090;51.258;4.436;2023-02-28T08:39:58;5.17;;;3.80;;
10100;SDS011;5090;51.258;4.436;2023-02-28T08:42:26;4.30;;;2.97;;
10100;SDS011;5090;51.258;4.436;2023-02-28T08:44:55;4.27;;;3.37;;
10100;SDS011;5090;51.258;4.436;2023-02-28T08:47:23;4.60;;;3.30;;
10100;SDS011;5090;51.258;4.436;2023-02-28T08:49:52;4.60;;;3.03;;
10100;SDS011;5090;51.258;4.436;2023-02-28T08:52:20;4.30;;;3.30;;
10100;SDS011;5090;51.258;4.436;2023-02-28T08:54:48;4.90;;;2.70;;
10100;SDS011;5090;51.258;4.436;2023-02-28T08:57:16;4.23;;;2.73;;
10100;SDS011;5090;51.258;4.436;2023-02-28T08:59:44;3.67;;;2.83;;
10100;SDS011;5090;51.258;4.436;2023-02-28T09:02:13;3.27;;;2.73;;
10100;SDS011;5090;51.258;4.436;2023-02-28T09:04:41;4.60;;;3.20;;
10100;SDS011;5090;51.258;4.436;2023-02-28T09:07:09;4.23;;;2.77;;
10100;SDS011;5090;51.258;4.436;2023-02-28T09:09:37;3.67;;;2.50;;
10100;SDS011;5090;51.258;4.436;2023-02-28T09:12:06;2.80;;;2.37;;
10100;SDS011;5090;51.258;4.436;2023-02-28T09:14:34;3.23;;;2.70;;
10100;SDS011;5090;51.258;4.436;2023-02-28T09:17:03;3.13;;;2.20;;
10100;SDS011;5090;51.258;4.436;2023-02-28T09:19:31;3.77;;;2.50;;
10100;SDS011;5090;51.258;4.436;2023-02-28T09:21:59;4.80;;;2.60;;
10100;SDS011;5090;51.258;4.436;2023-02-28T09:24:27;2.63;;;2.37;;
10100;SDS011;5090;51.258;4.436;2023-02-28T09:26:55;3.20;;;2.40;;
10100;SDS011;5090;51.258;4.436;2023-02-28T09:29:24;4.13;;;2.17;;
10100;SDS011;5090;51.258;4.436;2023-02-28T09:31:52;3.97;;;2.40;;
10100;SDS011;5090;51.258;4.436;2023-02-28T09:34:20;3.00;;;2.53;;
10100;SDS011;5090;51.258;4.436;2023-02-28T09:36:48;6.00;;;2.60;;
10100;SDS011;5090;51.258;4.436;2023-02-28T09:39:17;2.20;;;2.00;;
10100;SDS011;5090;51.258;4.436;2023-02-28T09:41:45;3.20;;;2.20;;
10100;SDS011;5090;51.258;4.436;2023-02-28T09:44:18;5.10;;;2.10;;
10100;SDS011;5090;51.258;4.436;2023-02-28T09:46:44;2.20;;;2.10;;
10100;SDS011;5090;51.258;4.436;2023-02-28T09:49:14;2.73;;;2.23;;
10100;SDS011;5090;51.258;4.436;2023-02-28T09:51:47;3.37;;;2.40;;
10100;SDS011;5090;51.258;4.436;2023-02-28T09:54:16;3.03;;;2.27;;
10100;SDS011;5090;51.258;4.436;2023-02-28T09:56:45;3.47;;;2.40;;
10100;SDS011;5090;51.258;4.436;2023-02-28T09:59:21;5.93;;;2.97;;
10100;SDS011;5090;51.258;4.436;2023-02-28T10:01:50;2.87;;;2.40;;
10100;SDS011;5090;51.258;4.436;2023-02-28T10:07:01;2.67;;;2.33;;
10100;SDS011;5090;51.258;4.436;2023-02-28T10:09:30;5.83;;;2.40;;
10100;SDS011;5090;51.258;4.436;2023-02-28T10:11:59;3.30;;;2.30;;
10100;SDS011;5090;51.258;4.436;2023-02-28T10:14:26;2.47;;;2.27;;
10100;SDS011;5090;51.258;4.436;2023-02-28T10:16:58;2.50;;;2.30;;
10100;SDS011;5090;51.258;4.436;2023-02-28T10:19:29;2.73;;;2.30;;
10100;SDS011;5090;51.258;4.436;2023-02-28T10:21:57;3.73;;;2.07;;
10100;SDS011;5090;51.258;4.436;2023-02-28T10:24:34;2.53;;;2.17;;
10100;SDS011;5090;51.258;4.436;2023-02-28T10:27:09;2.63;;;2.07;;
10100;SDS011;5090;51.258;4.436;2023-02-28T10:29:32;2.73;;;1.83;;
10100;SDS011;5090;51.258;4.436;2023-02-28T10:32:01;1.80;;;1.70;;
10100;SDS011;5090;51.258;4.436;2023-02-28T10:34:30;3.83;;;1.77;;
10100;SDS011;5090;51.258;4.436;2023-02-28T10:36:58;2.93;;;2.40;;
10100;SDS011;5090;51.258;4.436;2023-02-28T10:42:00;1.93;;;1.70;;
10100;SDS011;5090;51.258;4.436;2023-02-28T10:44:28;2.43;;;2.03;;
10100;SDS011;5090;51.258;4.436;2023-02-28T10:46:56;2.33;;;1.80;;
10100;SDS011;5090;51.258;4.436;2023-02-28T10:49:26;2.43;;;1.87;;
10100;SDS011;5090;51.258;4.436;2023-02-28T10:51:56;2.83;;;2.50;;
10100;SDS011;5090;51.258;4.436;2023-02-28T10:54:26;3.73;;;2.00;;
10100;SDS011;5090;51.258;4.436;2023-02-28T10:59:28;1.77;;;1.53;;
10100;SDS011;5090;51.258;4.436;2023-02-28T11:01:55;2.07;;;1.93;;
10100;SDS011;5090;51.258;4.436;2023-02-28T11:04:35;2.07;;;1.63;;
10100;SDS011;5090;51.258;4.436;2023-02-28T11:07:05;2.50;;;1.93;;
10100;SDS011;5090;51.258;4.436;2023-02-28T11:09:34;2.40;;;1.87;;
10100;SDS011;5090;51.258;4.436;2023-02-28T11:12:02;4.27;;;2.03;;
10100;SDS011;5090;51.258;4.436;2023-02-28T11:14:31;1.80;;;1.60;;
10100;SDS011;5090;51.258;4.436;2023-02-28T11:17:00;2.03;;;1.83;;
10100;SDS011;5090;51.258;4.436;2023-02-28T11:19:28;2.37;;;1.83;;
10100;SDS011;5090;51.258;4.436;2023-02-28T11:21:56;2.10;;;1.90;;
10100;SDS011;5090;51.258;4.436;2023-02-28T11:24:27;1.90;;;1.73;;
10100;SDS011;5090;51.258;4.436;2023-02-28T11:26:54;2.33;;;1.80;;
10100;SDS011;5090;51.258;4.436;2023-02-28T11:29:24;2.90;;;1.97;;
10100;SDS011;5090;51.258;4.436;2023-02-28T11:34:26;2.30;;;1.80;;
10100;SDS011;5090;51.258;4.436;2023-02-28T11:36:54;2.20;;;2.00;;
10100;SDS011;5090;51.258;4.436;2023-02-28T11:39:22;2.17;;;1.90;;
10100;SDS011;5090;51.258;4.436;2023-02-28T11:41:59;1.70;;;1.60;;
10100;SDS011;5090;51.258;4.436;2023-02-28T11:45:01;3.13;;;1.70;;
10100;SDS011;5090;51.258;4.436;2023-02-28T11:47:22;1.90;;;1.60;;
10100;SDS011;5090;51.258;4.436;2023-02-28T11:49:55;2.03;;;1.87;;
10100;SDS011;5090;51.258;4.436;2023-02-28T11:52:52;1.83;;;1.70;;
10100;SDS011;5090;51.258;4.436;2023-02-28T11:55:06;3.87;;;2.03;;
10100;SDS011;5090;51.258;4.436;2023-02-28T11:57:35;1.90;;;1.80;;
10100;SDS011;5090;51.258;4.436;2023-02-28T12:00:06;1.60;;;1.50;;
10100;SDS011;5090;51.258;4.436;2023-02-28T12:02:43;2.00;;;1.80;;
10100;SDS011;5090;51.258;4.436;2023-02-28T12:05:10;3.27;;;2.03;;
10100;SDS011;5090;51.258;4.436;2023-02-28T12:10:24;2.60;;;1.67;;
10100;SDS011;5090;51.258;4.436;2023-02-28T12:13:26;1.53;;;1.43;;
10100;SDS011;5090;51.258;4.436;2023-02-28T12:18:20;2.77;;;1.87;;
10100;SDS011;5090;51.258;4.436;2023-02-28T12:20:46;2.63;;;1.80;;
10100;SDS011;5090;51.258;4.436;2023-02-28T12:23:21;3.97;;;2.13;;
10100;SDS011;5090;51.258;4.436;2023-02-28T12:25:55;2.43;;;2.23;;
10100;SDS011;5090;51.258;4.436;2023-02-28T12:28:24;2.67;;;1.80;;
10100;SDS011;5090;51.258;4.436;2023-02-28T12:31:08;2.60;;;1.53;;
10100;SDS011;5090;51.258;4.436;2023-02-28T12:33:35;2.10;;;1.87;;
10100;SDS011;5090;51.258;4.436;2023-02-28T12:36:04;2.60;;;2.10;;
10100;SDS011;5090;51.258;4.436;2023-02-28T12:38:34;2.20;;;1.70;;
10100;SDS011;5090;51.258;4.436;2023-02-28T12:41:00;2.17;;;1.97;;
10100;SDS011;5090;51.258;4.436;2023-02-28T12:43:35;2.57;;;1.83;;
10100;SDS011;5090;51.258;4.436;2023-02-28T12:46:07;2.37;;;1.83;;
10100;SDS011;5090;51.258;4.436;2023-02-28T12:48:38;3.37;;;2.30;;
10100;SDS011;5090;51.258;4.436;2023-02-28T12:51:05;2.90;;;2.20;;
10100;SDS011;5090;51.258;4.436;2023-02-28T12:53:41;3.00;;;2.17;;
10100;SDS011;5090;51.258;4.436;2023-02-28T12:56:08;2.13;;;1.80;;
10100;SDS011;5090;51.258;4.436;2023-02-28T12:58:36;2.93;;;2.13;;
10100;SDS011;5090;51.258;4.436;2023-02-28T13:01:12;2.17;;;1.97;;
10100;SDS011;5090;51.258;4.436;2023-02-28T13:06:12;3.37;;;2.43;;
10100;SDS011;5090;51.258;4.436;2023-02-28T13:08:48;3.03;;;2.50;;
10100;SDS011;5090;51.258;4.436;2023-02-28T13:11:43;2.40;;;2.20;;
10100;SDS011;5090;51.258;4.436;2023-02-28T13:13:57;2.37;;;2.20;;
10100;SDS011;5090;51.258;4.436;2023-02-28T13:16:25;2.57;;;2.37;;
10100;SDS011;5090;51.258;4.436;2023-02-28T13:18:53;2.77;;;1.87;;
10100;SDS011;5090;51.258;4.436;2023-02-28T13:21:27;4.63;;;2.37;;
10100;SDS011;5090;51.258;4.436;2023-02-28T13:23:57;2.33;;;1.80;;
10100;SDS011;5090;51.258;4.436;2023-02-28T13:29:21;6.53;;;2.60;;
10100;SDS011;5090;51.258;4.436;2023-02-28T13:34:26;4.10;;;2.00;;
10100;SDS011;5090;51.258;4.436;2023-02-28T13:42:32;4.93;;;2.80;;
10100;SDS011;5090;51.258;4.436;2023-02-28T13:45:19;2.70;;;2.50;;
10100;SDS011;5090;51.258;4.436;2023-02-28T13:47:39;2.40;;;2.20;;
10100;SDS011;5090;51.258;4.436;2023-02-28T13:52:44;2.43;;;2.03;;
10100;SDS011;5090;51.258;4.436;2023-02-28T13:58:03;2.47;;;2.10;;
10100;SDS011;5090;51.258;4.436;2023-02-28T14:00:50;2.43;;;2.23;;
10100;SDS011;5090;51.258;4.436;2023-02-28T14:03:16;3.10;;;2.40;;
10100;SDS011;5090;51.258;4.436;2023-02-28T14:05:41;2.93;;;2.60;;
10100;SDS011;5090;51.258;4.436;2023-02-28T14:08:14;4.07;;;2.97;;
10100;SDS011;5090;51.258;4.436;2023-02-28T14:10:43;9.23;;;2.93;;
10100;SDS011;5090;51.258;4.436;2023-02-28T14:13:13;4.00;;;2.77;;
10100;SDS011;5090;51.258;4.436;2023-02-28T14:15:42;3.23;;;2.33;;
10100;SDS011;5090;51.258;4.436;2023-02-28T14:20:43;4.37;;;2.60;;
10100;SDS011;5090;51.258;4.436;2023-02-28T14:28:24;4.13;;;2.50;;
10100;SDS011;5090;51.258;4.436;2023-02-28T14:30:52;2.83;;;2.53;;
10100;SDS011;5090;51.258;4.436;2023-02-28T14:33:27;3.00;;;2.70;;
10100;SDS011;5090;51.258;4.436;2023-02-28T14:36:01;4.03;;;3.00;;
10100;SDS011;5090;51.258;4.436;2023-02-28T14:38:29;2.70;;;2.50;;
10100;SDS011;5090;51.258;4.436;2023-02-28T14:40:57;3.37;;;2.40;;
10100;SDS011;5090;51.258;4.436;2023-02-28T14:43:25;3.03;;;2.30;;
10100;SDS011;5090;51.258;4.436;2023-02-28T14:45:54;3.40;;;2.83;;
10100;SDS011;5090;51.258;4.436;2023-02-28T14:48:21;3.43;;;2.80;;
10100;SDS011;5090;51.258;4.436;2023-02-28T14:50:52;5.37;;;3.30;;
10100;SDS011;5090;51.258;4.436;2023-02-28T14:53:20;6.07;;;2.60;;
10100;SDS011;5090;51.258;4.436;2023-02-28T14:55:48;4.23;;;2.70;;
10100;SDS011;5090;51.258;4.436;2023-02-28T14:58:24;4.10;;;2.43;;
10100;SDS011;5090;51.258;4.436;2023-02-28T15:00:51;4.00;;;2.60;;
10100;SDS011;5090;51.258;4.436;2023-02-28T15:03:21;4.80;;;2.77;;
10100;SDS011;5090;51.258;4.436;2023-02-28T15:05:58;3.73;;;2.63;;
10100;SDS011;5090;51.258;4.436;2023-02-28T15:08:25;4.70;;;2.63;;
10100;SDS011;5090;51.258;4.436;2023-02-28T15:10:56;4.43;;;2.70;;
10100;SDS011;5090;51.258;4.436;2023-02-28T15:13:26;2.90;;;2.63;;
10100;SDS011;5090;51.258;4.436;2023-02-28T15:15:55;3.23;;;2.93;;
10100;SDS011;5090;51.258;4.436;2023-02-28T15:18:23;2.60;;;2.40;;
10100;SDS011;5090;51.258;4.436;2023-02-28T15:20:50;2.47;;;2.30;;
10100;SDS011;5090;51.258;4.436;2023-02-28T15:23:18;3.77;;;2.90;;
10100;SDS011;5090;51.258;4.436;2023-02-28T15:25:46;4.77;;;2.83;;
10100;SDS011;5090;51.258;4.436;2023-02-28T15:28:16;2.77;;;2.57;;
10100;SDS011;5090;51.258;4.436;2023-02-28T15:30:50;4.17;;;2.83;;
10100;SDS011;5090;51.258;4.436;2023-02-28T15:33:19;3.53;;;2.70;;
10100;SDS011;5090;51.258;4.436;2023-02-28T15:35:46;3.37;;;2.50;;
10100;SDS011;5090;51.258;4.436;2023-02-28T15:38:16;3.33;;;2.80;;
10100;SDS011;5090;51.258;4.436;2023-02-28T15:40:44;3.23;;;2.93;;
10100;SDS011;5090;51.258;4.436;2023-02-28T15:43:15;6.53;;;3.30;;
10100;SDS011;5090;51.258;4.436;2023-02-28T15:45:44;3.87;;;2.57;;
10100;SDS011;5090;51.258;4.436;2023-02-28T15:48:16;8.17;;;3.00;;
10100;SDS011;5090;51.258;4.436;2023-02-28T15:50:44;6.40;;;2.90;;
10100;SDS011;5090;51.258;4.436;2023-02-28T15:53:13;3.73;;;2.83;;
10100;SDS011;5090;51.258;4.436;2023-02-28T15:55:40;3.07;;;2.57;;